createdAt,value
2022-09-07T00:04:55.454Z,2.30
2022-09-07T00:09:58.929Z,2.60
2022-09-07T00:15:04.367Z,6.10
2022-09-07T00:20:17.436Z,2.70
2022-09-07T00:25:34.383Z,3.10
2022-09-07T00:30:42.396Z,2.60
2022-09-07T00:35:49.251Z,2.90
2022-09-07T00:40:53.686Z,2.50
2022-09-07T00:45:57.137Z,3.10
2022-09-07T00:51:05.042Z,2.20
2022-09-07T00:56:18.171Z,3.40
2022-09-07T01:01:24.579Z,3.50
2022-09-07T01:06:36.744Z,3.50
2022-09-07T01:11:44.074Z,2.80
2022-09-07T01:17:09.300Z,2.50
2022-09-07T01:22:25.255Z,3.30
2022-09-07T01:27:46.950Z,2.70
2022-09-07T01:32:53.210Z,3.00
2022-09-07T01:38:04.692Z,2.50
2022-09-07T01:43:17.808Z,2.50
2022-09-07T01:48:24.284Z,2.70
2022-09-07T01:53:37.260Z,2.60
2022-09-07T01:58:51.025Z,2.80
2022-09-07T02:04:03.601Z,2.60
2022-09-07T02:09:27.949Z,2.50
2022-09-07T02:14:34.665Z,3.10
2022-09-07T02:19:44.609Z,2.60
2022-09-07T02:24:51.945Z,2.00
2022-09-07T02:29:55.338Z,3.10
2022-09-07T02:34:58.794Z,2.50
2022-09-07T02:40:02.471Z,3.10
2022-09-07T02:45:09.396Z,4.40
2022-09-07T02:50:50.652Z,2.60
2022-09-07T02:56:06.536Z,2.70
2022-09-07T03:01:35.122Z,2.90
2022-09-07T03:06:49.625Z,2.50
2022-09-07T03:11:53.241Z,2.60
2022-09-07T03:16:57.524Z,2.30
2022-09-07T03:22:00.747Z,2.30
2022-09-07T03:27:04.185Z,2.10
2022-09-07T03:32:07.428Z,2.20
2022-09-07T03:37:13.191Z,2.10
2022-09-07T03:42:17.050Z,2.10
2022-09-07T03:47:20.396Z,2.60
2022-09-07T03:52:24.030Z,2.20
2022-09-07T03:57:27.849Z,2.10
2022-09-07T04:02:31.087Z,2.40
2022-09-07T04:07:34.330Z,2.20
2022-09-07T04:12:37.630Z,1.90
2022-09-07T04:17:40.944Z,2.10
2022-09-07T04:22:44.309Z,1.90
2022-09-07T04:27:47.744Z,2.20
2022-09-07T04:32:52.479Z,2.10
2022-09-07T04:37:56.778Z,2.00
2022-09-07T04:43:00.519Z,1.70
2022-09-07T04:48:04.573Z,1.70
2022-09-07T04:53:08.065Z,2.60
2022-09-07T04:58:14.323Z,1.80
2022-09-07T05:03:17.609Z,2.00
2022-09-07T05:08:21.436Z,2.00
2022-09-07T05:13:25.853Z,1.80
2022-09-07T05:18:30.196Z,1.90
2022-09-07T05:23:33.948Z,1.40
2022-09-07T05:28:38.013Z,1.90
2022-09-07T05:39:22.535Z,2.10
2022-09-07T05:49:53.003Z,2.30
2022-09-07T05:55:19.622Z,2.20
2022-09-07T06:00:40.082Z,1.90
2022-09-07T06:05:45.635Z,2.20
2022-09-07T06:11:14.666Z,2.20
2022-09-07T06:16:22.205Z,2.00
2022-09-07T06:21:25.622Z,2.20
2022-09-07T06:26:28.877Z,3.80
2022-09-07T06:31:32.444Z,2.20
2022-09-07T06:36:35.965Z,2.20
2022-09-07T06:47:12.454Z,2.30
2022-09-07T06:52:15.814Z,2.50
2022-09-07T06:57:19.214Z,2.20
2022-09-07T07:02:22.636Z,2.30
2022-09-07T07:07:25.846Z,2.60
2022-09-07T07:17:33.991Z,2.60
2022-09-07T07:22:52.509Z,3.00
2022-09-07T07:27:56.010Z,2.50
2022-09-07T07:32:59.599Z,3.30
2022-09-07T07:43:26.805Z,2.40
2022-09-07T07:48:31.828Z,3.00
2022-09-07T07:53:41.635Z,2.80
2022-09-07T07:58:47.318Z,3.00
2022-09-07T08:03:51.199Z,2.50
2022-09-07T08:08:56.237Z,2.90
2022-09-07T08:14:01.725Z,3.70
2022-09-07T08:19:06.118Z,3.50
2022-09-07T08:24:09.570Z,3.20
2022-09-07T08:29:12.744Z,3.30
2022-09-07T08:34:15.986Z,3.60
2022-09-07T08:39:19.285Z,3.90
2022-09-07T08:44:38.963Z,3.40
2022-09-07T08:49:53.639Z,4.20
2022-09-07T08:55:21.300Z,4.40
2022-09-07T09:00:24.604Z,3.30
2022-09-07T09:05:36.358Z,2.90
2022-09-07T09:11:11.813Z,3.30
2022-09-07T09:16:25.050Z,3.30
2022-09-07T09:21:28.427Z,3.40
2022-09-07T09:26:33.030Z,3.40
2022-09-07T09:31:36.397Z,3.30
2022-09-07T09:36:45.862Z,3.50
2022-09-07T09:41:50.059Z,4.10
2022-09-07T09:52:29.872Z,3.30
2022-09-07T10:08:59.822Z,3.70
2022-09-07T10:14:04.750Z,3.50
2022-09-07T10:19:40.813Z,3.30
2022-09-07T10:24:44.079Z,4.20
2022-09-07T10:29:47.420Z,3.60
2022-09-07T10:35:12.681Z,3.60
2022-09-07T10:40:28.732Z,4.00
2022-09-07T10:45:52.207Z,3.10
2022-09-07T10:51:03.131Z,3.60
2022-09-07T10:56:31.011Z,3.30
2022-09-07T11:01:59.946Z,3.40
2022-09-07T11:07:16.457Z,4.10
2022-09-07T11:12:30.896Z,3.30
2022-09-07T11:17:53.219Z,3.50
2022-09-07T11:23:11.169Z,5.30
2022-09-07T11:28:20.449Z,3.90
2022-09-07T11:33:31.739Z,3.60
2022-09-07T11:38:39.426Z,3.10
2022-09-07T11:43:55.345Z,3.60
2022-09-07T11:49:04.377Z,3.30
2022-09-07T11:54:27.495Z,3.50
2022-09-07T12:00:03.806Z,3.30
2022-09-07T12:05:25.108Z,3.40
2022-09-07T12:10:43.469Z,3.30
2022-09-07T12:16:05.839Z,3.80
2022-09-07T12:21:42.869Z,3.80
2022-09-07T12:26:50.229Z,3.40
2022-09-07T12:31:58.764Z,3.50
2022-09-07T12:37:39.146Z,3.30
2022-09-07T12:42:42.515Z,3.00
2022-09-07T12:47:59.279Z,3.60
2022-09-07T12:53:17.803Z,3.40
2022-09-07T12:58:47.709Z,3.30
2022-09-07T13:04:08.888Z,3.40
2022-09-07T13:09:38.595Z,3.30
2022-09-07T13:14:43.793Z,3.00
2022-09-07T13:19:47.143Z,3.60
2022-09-07T13:24:57.585Z,4.30
2022-09-07T13:30:16.810Z,3.60
2022-09-07T13:35:23.339Z,3.30
2022-09-07T13:40:29.315Z,3.30
2022-09-07T13:45:51.181Z,3.30
2022-09-07T13:51:07.512Z,3.90
2022-09-07T13:56:13.927Z,3.20
2022-09-07T14:01:22.817Z,3.90
2022-09-07T14:06:33.657Z,3.50
2022-09-07T14:11:46.551Z,3.40
2022-09-07T14:17:00.501Z,3.70
2022-09-07T14:22:38.153Z,3.30
2022-09-07T14:27:46.863Z,3.70
2022-09-07T14:33:01.053Z,3.90
2022-09-07T14:39:04.111Z,3.90
2022-09-07T14:43:58.780Z,3.40
2022-09-07T14:49:05.876Z,3.80
2022-09-07T14:54:30.977Z,3.50
2022-09-07T14:59:55.801Z,3.50
2022-09-07T15:05:26.183Z,3.60
2022-09-07T15:10:35.896Z,3.90
2022-09-07T15:15:41.621Z,3.60
2022-09-07T15:20:46.454Z,3.30
2022-09-07T15:25:53.617Z,4.30
2022-09-07T15:36:20.927Z,5.90
2022-09-07T15:41:24.719Z,5.20
2022-09-07T15:46:28.493Z,4.90
2022-09-07T16:13:11.119Z,3.80
2022-09-07T16:18:18.751Z,4.20
2022-09-07T16:23:29.188Z,3.80
2022-09-07T16:28:40.039Z,3.80
2022-09-07T16:33:45.674Z,3.80
2022-09-07T16:38:51.986Z,3.80
2022-09-07T16:43:56.162Z,4.00
2022-09-07T16:49:12.494Z,3.50
2022-09-07T16:54:16.082Z,3.70
2022-09-07T16:59:21.840Z,3.90
2022-09-07T17:04:25.097Z,4.20
2022-09-07T17:09:29.212Z,3.90
2022-09-07T17:14:34.474Z,3.90
2022-09-07T17:19:38.190Z,4.60
2022-09-07T17:24:41.717Z,4.60
2022-09-07T17:29:53.729Z,4.00
2022-09-07T17:35:00.757Z,4.20
2022-09-07T17:40:06.023Z,4.40
2022-09-07T17:45:19.040Z,5.10
2022-09-07T17:50:23.947Z,8.80
2022-09-07T17:55:27.373Z,7.00
2022-09-07T18:00:30.667Z,5.30
2022-09-07T18:05:38.146Z,4.80
2022-09-07T18:16:19.153Z,5.00
2022-09-07T18:21:31.922Z,4.80
2022-09-07T18:27:01.754Z,6.70
2022-09-07T18:32:25.500Z,6.20
2022-09-07T18:37:47.604Z,5.80
2022-09-07T18:42:52.910Z,5.60
2022-09-07T18:47:56.239Z,5.20
2022-09-07T18:53:10.562Z,5.40
2022-09-07T18:58:19.722Z,5.60
2022-09-07T19:03:23.016Z,6.60
2022-09-07T19:08:30.627Z,5.60
2022-09-07T19:13:34.525Z,5.00
2022-09-07T19:18:51.087Z,5.10
2022-09-07T19:23:59.781Z,5.40
2022-09-07T19:29:12.772Z,6.40
2022-09-07T19:34:16.919Z,6.20
2022-09-07T19:39:32.860Z,5.00
2022-09-07T19:44:40.610Z,5.00
2022-09-07T19:49:43.954Z,4.60
2022-09-07T19:54:50.377Z,4.50
2022-09-07T19:59:57.701Z,4.20
2022-09-07T20:05:02.174Z,4.70
2022-09-07T20:10:12.352Z,4.90
2022-09-07T20:15:18.762Z,4.60
2022-09-07T20:20:24.077Z,5.20
2022-09-07T20:25:27.339Z,4.70
2022-09-07T20:30:34.278Z,4.90
2022-09-07T20:35:44.572Z,4.50
2022-09-07T20:40:58.053Z,4.40
2022-09-07T20:46:02.875Z,4.50
2022-09-07T20:51:20.228Z,5.00
2022-09-07T20:56:33.131Z,5.80
2022-09-07T21:01:36.836Z,5.60
2022-09-07T21:06:44.062Z,4.60
2022-09-07T21:11:49.742Z,5.20
2022-09-07T21:16:54.102Z,4.60
2022-09-07T21:21:57.676Z,4.90
2022-09-07T21:27:01.508Z,4.50
2022-09-07T21:32:05.431Z,4.90
2022-09-07T21:37:19.344Z,5.60
2022-09-07T21:42:28.819Z,5.90
2022-09-07T21:47:34.951Z,4.60
2022-09-07T21:52:49.667Z,5.20
2022-09-07T21:58:03.301Z,5.80
2022-09-07T22:03:12.894Z,5.30
2022-09-07T22:08:17.932Z,5.10
2022-09-07T22:13:21.292Z,6.00
2022-09-07T22:18:24.601Z,6.40
2022-09-07T22:23:34.003Z,5.50
2022-09-07T22:28:44.148Z,5.30
2022-09-07T22:33:49.188Z,5.50
2022-09-07T22:38:57.769Z,5.60
2022-09-07T22:44:03.543Z,5.70
2022-09-07T22:49:07.526Z,6.20
2022-09-07T22:54:11.356Z,6.90
2022-09-07T22:59:14.571Z,6.10
2022-09-07T23:04:19.960Z,6.50
2022-09-07T23:09:32.320Z,7.20
2022-09-07T23:14:36.007Z,6.40
2022-09-07T23:19:44.476Z,5.80
2022-09-07T23:24:53.616Z,5.90
2022-09-07T23:30:01.549Z,6.70
2022-09-07T23:35:08.306Z,6.70
2022-09-07T23:40:18.874Z,6.00
2022-09-07T23:45:29.050Z,6.50
2022-09-07T23:50:41.111Z,6.20
2022-09-07T23:55:48.120Z,7.00
